createdAt,value
2023-05-22T00:01:19.566Z,97513.75
2023-05-22T00:03:46.750Z,97505.53
2023-05-22T00:06:15.164Z,97510.44
2023-05-22T00:08:42.149Z,97508.81
2023-05-22T00:11:09.160Z,97510.00
2023-05-22T00:13:36.245Z,97502.53
2023-05-22T00:16:03.625Z,97512.09
2023-05-22T00:18:30.783Z,97505.84
2023-05-22T00:20:58.219Z,97504.06
2023-05-22T00:23:27.994Z,97494.84
2023-05-22T00:25:55.032Z,97495.84
2023-05-22T00:28:22.184Z,97493.03
2023-05-22T00:30:49.233Z,97493.38
2023-05-22T00:33:16.348Z,97501.81
2023-05-22T00:35:43.507Z,97494.25
2023-05-22T00:38:32.715Z,97494.09
2023-05-22T00:41:01.234Z,97492.47
2023-05-22T00:43:28.678Z,97501.09
2023-05-22T00:45:56.607Z,97503.78
2023-05-22T00:48:24.628Z,97508.88
2023-05-22T00:50:55.452Z,97508.38
2023-05-22T00:53:24.532Z,97510.38
2023-05-22T00:55:53.672Z,97512.53
2023-05-22T00:58:21.981Z,97511.56
2023-05-22T01:00:49.224Z,97513.00
2023-05-22T01:03:17.794Z,97510.03
2023-05-22T01:05:45.979Z,97504.97
2023-05-22T01:08:13.061Z,97506.13
2023-05-22T01:10:41.229Z,97502.53
2023-05-22T01:13:34.485Z,97501.59
2023-05-22T01:16:26.291Z,97496.19
2023-05-22T01:19:11.290Z,97496.06
2023-05-22T01:22:01.021Z,97495.09
2023-05-22T01:24:46.895Z,97490.78
2023-05-22T01:27:26.253Z,97485.56
2023-05-22T01:30:11.616Z,97491.34
2023-05-22T01:32:42.483Z,97496.78
2023-05-22T01:35:12.970Z,97495.47
2023-05-22T01:37:42.303Z,97497.28
2023-05-22T01:40:10.717Z,97504.03
2023-05-22T01:42:41.247Z,97502.91
2023-05-22T01:45:11.247Z,97505.69
2023-05-22T01:47:38.924Z,97510.28
2023-05-22T01:50:07.130Z,97511.75
2023-05-22T01:52:54.220Z,97511.75
2023-05-22T01:55:40.498Z,97506.97
2023-05-22T01:58:53.122Z,97516.19
2023-05-22T02:01:22.726Z,97513.69
2023-05-22T02:03:56.331Z,97515.47
2023-05-22T02:06:29.324Z,97517.78
2023-05-22T02:08:57.190Z,97504.78
2023-05-22T02:11:27.007Z,97501.19
2023-05-22T02:13:54.354Z,97499.19
2023-05-22T02:16:22.397Z,97500.00
2023-05-22T02:18:49.698Z,97502.41
2023-05-22T02:21:16.826Z,97514.31
2023-05-22T02:23:43.916Z,97514.56
2023-05-22T02:26:11.183Z,97507.00
2023-05-22T02:28:38.286Z,97509.28
2023-05-22T02:31:07.027Z,97515.47
2023-05-22T02:33:34.116Z,97516.00
2023-05-22T02:36:01.283Z,97518.81
2023-05-22T02:38:28.444Z,97511.41
2023-05-22T02:40:55.571Z,97504.00
2023-05-22T02:43:22.586Z,97504.78
2023-05-22T02:45:49.708Z,97503.28
2023-05-22T02:48:17.618Z,97505.47
2023-05-22T02:50:44.750Z,97509.22
2023-05-22T02:53:12.145Z,97510.22
2023-05-22T02:55:39.172Z,97513.06
2023-05-22T02:58:06.602Z,97510.56
2023-05-22T03:00:33.639Z,97510.28
2023-05-22T03:03:00.902Z,97517.19
2023-05-22T03:05:27.978Z,97514.81
2023-05-22T03:07:55.030Z,97521.31
2023-05-22T03:10:22.913Z,97522.31
2023-05-22T03:12:51.883Z,97512.16
2023-05-22T03:15:19.405Z,97517.50
2023-05-22T03:17:47.603Z,97516.88
2023-05-22T03:20:16.980Z,97521.81
2023-05-22T03:22:45.888Z,97520.09
2023-05-22T03:25:13.353Z,97520.63
2023-05-22T03:27:43.758Z,97524.59
2023-05-22T03:30:11.383Z,97524.25
2023-05-22T03:32:41.179Z,97526.88
2023-05-22T03:35:08.865Z,97523.44
2023-05-22T03:37:36.133Z,97521.22
2023-05-22T03:40:04.973Z,97524.03
2023-05-22T03:42:32.089Z,97522.09
2023-05-22T03:44:59.162Z,97518.50
2023-05-22T03:47:26.981Z,97517.50
2023-05-22T03:49:54.084Z,97512.09
2023-05-22T03:52:23.021Z,97509.81
2023-05-22T03:54:50.046Z,97513.44
2023-05-22T03:57:19.969Z,97502.72
2023-05-22T03:59:47.234Z,97513.91
2023-05-22T04:02:16.890Z,97511.63
2023-05-22T04:04:46.486Z,97521.13
2023-05-22T04:07:13.816Z,97510.09
2023-05-22T04:09:41.613Z,97510.94
2023-05-22T04:12:08.917Z,97513.41
2023-05-22T04:14:36.100Z,97515.03
2023-05-22T04:17:03.272Z,97514.50
2023-05-22T04:19:30.880Z,97518.28
2023-05-22T04:21:58.680Z,97514.75
2023-05-22T04:24:25.924Z,97531.22
2023-05-22T04:26:53.393Z,97520.63
2023-05-22T04:29:22.562Z,97524.56
2023-05-22T04:31:49.648Z,97524.69
2023-05-22T04:34:17.192Z,97522.00
2023-05-22T04:36:45.393Z,97522.50
2023-05-22T04:39:14.102Z,97515.00
2023-05-22T04:41:41.495Z,97508.91
2023-05-22T04:44:08.712Z,97519.16
2023-05-22T04:46:36.219Z,97517.94
2023-05-22T04:49:03.515Z,97519.06
2023-05-22T04:51:32.420Z,97519.88
2023-05-22T04:53:59.680Z,97518.84
2023-05-22T04:56:35.986Z,97523.72
2023-05-22T04:59:05.791Z,97521.72
2023-05-22T05:01:35.359Z,97527.00
2023-05-22T05:04:03.923Z,97526.50
2023-05-22T05:06:31.099Z,97528.38
2023-05-22T05:08:58.216Z,97526.59
2023-05-22T05:11:26.200Z,97534.41
2023-05-22T05:13:53.307Z,97530.66
2023-05-22T05:16:20.344Z,97527.09
2023-05-22T05:18:47.765Z,97531.16
2023-05-22T05:21:14.827Z,97534.91
2023-05-22T05:23:42.665Z,97525.53
2023-05-22T05:26:09.729Z,97525.16
2023-05-22T05:28:37.842Z,97526.84
2023-05-22T05:31:07.896Z,97538.56
2023-05-22T05:33:53.259Z,97533.84
2023-05-22T05:36:29.898Z,97520.69
2023-05-22T05:38:58.672Z,97526.34
2023-05-22T05:41:27.118Z,97525.81
2023-05-22T05:44:06.524Z,97526.19
2023-05-22T05:46:34.126Z,97522.56
2023-05-22T05:49:02.178Z,97520.84
2023-05-22T05:51:29.343Z,97528.41
2023-05-22T05:53:56.848Z,97528.22
2023-05-22T05:56:24.710Z,97523.13
2023-05-22T05:58:52.059Z,97521.56
2023-05-22T06:01:44.659Z,97530.09
2023-05-22T06:04:18.639Z,97528.22
2023-05-22T06:06:49.962Z,97535.34
2023-05-22T06:09:32.378Z,97546.03
2023-05-22T06:12:17.835Z,97542.28
2023-05-22T06:14:45.645Z,97545.50
2023-05-22T06:17:15.700Z,97550.09
2023-05-22T06:19:44.356Z,97548.53
2023-05-22T06:22:12.287Z,97550.19
2023-05-22T06:24:41.687Z,97552.88
2023-05-22T06:27:13.968Z,97556.63
2023-05-22T06:29:41.089Z,97552.97
2023-05-22T06:32:09.469Z,97556.44
2023-05-22T06:34:39.042Z,97563.59
2023-05-22T06:37:07.177Z,97559.66
2023-05-22T06:39:39.906Z,97551.88
2023-05-22T06:42:27.440Z,97549.97
2023-05-22T06:45:30.220Z,97555.28
2023-05-22T06:48:23.938Z,97560.31
2023-05-22T06:51:17.158Z,97547.69
2023-05-22T06:53:50.741Z,97550.94
2023-05-22T06:56:22.770Z,97553.94
2023-05-22T06:59:12.134Z,97553.31
2023-05-22T07:02:02.152Z,97555.19
2023-05-22T07:04:37.637Z,97555.13
2023-05-22T07:07:12.008Z,97560.59
2023-05-22T07:09:39.650Z,97549.16
2023-05-22T07:12:07.682Z,97559.91
2023-05-22T07:14:34.776Z,97549.03
2023-05-22T07:17:02.584Z,97545.41
2023-05-22T07:19:36.141Z,97554.28
2023-05-22T07:22:04.934Z,97547.91
2023-05-22T07:24:34.550Z,97545.94
2023-05-22T07:27:04.561Z,97542.72
2023-05-22T07:29:33.087Z,97548.75
2023-05-22T07:32:01.422Z,97546.72
2023-05-22T07:34:33.378Z,97543.16
2023-05-22T07:37:12.614Z,97538.66
2023-05-22T07:39:41.230Z,97541.41
2023-05-22T07:42:09.677Z,97537.59
2023-05-22T07:44:43.545Z,97530.38
2023-05-22T07:47:10.732Z,97537.13
2023-05-22T07:49:38.882Z,97527.75
2023-05-22T07:52:06.827Z,97525.63
2023-05-22T07:54:34.469Z,97529.97
2023-05-22T07:57:04.234Z,97527.63
2023-05-22T07:59:37.865Z,97527.44
2023-05-22T08:02:05.416Z,97521.81
2023-05-22T08:04:32.625Z,97522.47
2023-05-22T08:06:59.773Z,97527.16
2023-05-22T08:09:26.984Z,97523.28
2023-05-22T08:11:54.032Z,97520.84
2023-05-22T08:14:22.356Z,97523.81
2023-05-22T08:16:49.624Z,97517.28
2023-05-22T08:19:16.919Z,97525.50
2023-05-22T08:21:44.088Z,97528.84
2023-05-22T08:24:11.270Z,97516.97
2023-05-22T08:26:39.057Z,97523.53
2023-05-22T08:29:06.232Z,97517.84
2023-05-22T08:31:34.422Z,97518.94
2023-05-22T08:34:05.098Z,97517.03
2023-05-22T08:36:34.323Z,97524.47
2023-05-22T08:39:02.065Z,97524.47
2023-05-22T08:41:30.409Z,97531.16
2023-05-22T08:43:57.654Z,97519.75
2023-05-22T08:46:28.401Z,97524.81
2023-05-22T08:48:59.131Z,97523.03
2023-05-22T08:51:31.668Z,97520.97
2023-05-22T08:54:00.818Z,97521.47
2023-05-22T08:56:29.612Z,97520.38
2023-05-22T08:58:58.817Z,97515.56
2023-05-22T09:01:26.438Z,97511.50
2023-05-22T09:03:54.121Z,97513.94
2023-05-22T09:06:21.240Z,97506.22
2023-05-22T09:08:50.065Z,97509.16
2023-05-22T09:11:18.556Z,97504.34
2023-05-22T09:13:45.938Z,97506.66
2023-05-22T09:16:14.267Z,97508.38
2023-05-22T09:18:45.039Z,97502.44
2023-05-22T09:21:25.566Z,97506.94
2023-05-22T09:24:01.480Z,97506.66
2023-05-22T09:26:29.729Z,97503.91
2023-05-22T09:28:59.645Z,97494.53
2023-05-22T09:31:27.779Z,97497.91
2023-05-22T09:33:56.284Z,97493.31
2023-05-22T09:36:32.481Z,97504.75
2023-05-22T09:39:03.186Z,97498.81
2023-05-22T09:41:34.397Z,97498.00
2023-05-22T09:44:02.127Z,97492.50
2023-05-22T10:17:07.550Z,97501.00
2023-05-22T10:19:38.431Z,97487.72
2023-05-22T10:22:08.761Z,97482.59
2023-05-22T10:24:36.326Z,97485.03
2023-05-22T10:27:04.404Z,97480.41
2023-05-22T10:29:37.747Z,97483.31
2023-05-22T10:32:13.528Z,97480.41
2023-05-22T10:34:59.713Z,97478.47
2023-05-22T10:37:45.661Z,97470.47
2023-05-22T10:40:22.250Z,97470.72
2023-05-22T10:42:50.482Z,97481.78
2023-05-22T10:45:18.960Z,97470.06
2023-05-22T10:47:47.137Z,97466.56
2023-05-22T10:50:14.481Z,97470.78
2023-05-22T10:52:41.610Z,97473.22
2023-05-22T10:55:10.932Z,97462.03
2023-05-22T10:57:39.808Z,97473.81
2023-05-22T11:00:18.836Z,97466.88
2023-05-22T11:02:50.343Z,97475.94
2023-05-22T11:05:22.467Z,97474.69
2023-05-22T11:07:49.695Z,97473.31
2023-05-22T11:10:27.006Z,97473.31
2023-05-22T11:13:12.084Z,97472.88
2023-05-22T11:15:45.921Z,97463.66
2023-05-22T11:18:14.744Z,97473.19
2023-05-22T11:20:42.451Z,97467.28
2023-05-22T11:23:11.430Z,97466.59
2023-05-22T11:25:41.442Z,97465.50
2023-05-22T11:28:10.832Z,97470.63
2023-05-22T11:30:38.966Z,97464.16
2023-05-22T11:33:06.871Z,97455.44
2023-05-22T11:35:34.662Z,97468.44
2023-05-22T11:38:06.432Z,97475.81
2023-05-22T11:40:33.557Z,97485.19
2023-05-22T11:43:00.763Z,97487.81
2023-05-22T11:45:27.873Z,97462.75
2023-05-22T11:47:55.921Z,97469.63
2023-05-22T11:50:40.325Z,97473.84
2023-05-22T11:53:08.767Z,97470.31
2023-05-22T11:55:36.001Z,97453.63
2023-05-22T11:58:03.085Z,97465.72
2023-05-22T12:00:36.705Z,97476.34
2023-05-22T12:03:04.377Z,97481.59
2023-05-22T12:05:32.873Z,97474.63
2023-05-22T12:08:00.186Z,97482.50
2023-05-22T12:10:27.323Z,97473.97
2023-05-22T12:12:55.257Z,97481.50
2023-05-22T12:15:22.460Z,97475.00
2023-05-22T12:17:49.550Z,97476.66
2023-05-22T12:20:16.826Z,97477.41
2023-05-22T12:22:44.293Z,97466.59
2023-05-22T12:25:16.621Z,97467.06
2023-05-22T12:27:45.735Z,97461.72
2023-05-22T12:30:15.149Z,97465.41
2023-05-22T12:32:47.492Z,97477.47
2023-05-22T12:35:17.979Z,97479.69
2023-05-22T12:37:52.223Z,97489.69
2023-05-22T12:40:19.596Z,97492.31
2023-05-22T12:42:48.293Z,97486.41
2023-05-22T12:45:15.538Z,97488.28
2023-05-22T12:47:42.642Z,97485.44
2023-05-22T12:50:10.038Z,97476.88
2023-05-22T12:52:37.286Z,97468.25
2023-05-22T12:55:04.849Z,97468.06
2023-05-22T12:57:31.981Z,97464.22
2023-05-22T12:59:59.003Z,97463.31
2023-05-22T13:02:26.228Z,97462.34
2023-05-22T13:04:53.380Z,97456.78
2023-05-22T13:07:20.760Z,97470.28
2023-05-22T13:09:47.851Z,97468.44
2023-05-22T13:12:14.962Z,97466.13
2023-05-22T13:14:42.195Z,97475.81
2023-05-22T13:17:09.391Z,97482.56
2023-05-22T13:19:36.724Z,97487.91
2023-05-22T13:22:04.087Z,97486.28
2023-05-22T13:24:31.164Z,97490.34
2023-05-22T13:26:58.249Z,97500.16
2023-05-22T13:29:25.339Z,97489.66
2023-05-22T13:31:52.437Z,97492.13
2023-05-22T13:34:19.672Z,97507.31
2023-05-22T13:36:47.016Z,97503.22
2023-05-22T13:39:14.124Z,97509.41
2023-05-22T13:41:41.273Z,97512.78
2023-05-22T13:44:08.471Z,97508.50
2023-05-22T13:46:36.134Z,97509.00
2023-05-22T13:49:05.018Z,97493.59
2023-05-22T13:51:32.084Z,97502.00
2023-05-22T13:53:59.055Z,97496.69
2023-05-22T13:56:26.376Z,97497.66
2023-05-22T13:58:53.447Z,97500.88
2023-05-22T14:01:20.502Z,97496.75
2023-05-22T14:03:47.701Z,97491.59
2023-05-22T14:06:14.851Z,97492.09
2023-05-22T14:08:41.934Z,97481.75
2023-05-22T14:11:09.007Z,97487.31
2023-05-22T14:13:36.368Z,97484.72
2023-05-22T14:16:03.529Z,97481.31
2023-05-22T14:18:31.627Z,97479.47
2023-05-22T14:20:58.685Z,97476.69
2023-05-22T14:23:25.838Z,97474.19
2023-05-22T14:25:53.042Z,97471.56
2023-05-22T14:28:20.129Z,97461.94
2023-05-22T14:30:47.388Z,97464.41
2023-05-22T14:33:14.645Z,97464.25
2023-05-22T14:35:41.873Z,97462.91
2023-05-22T14:38:09.131Z,97465.19
2023-05-22T14:40:36.259Z,97461.59
2023-05-22T14:43:05.880Z,97470.47
2023-05-22T14:45:32.890Z,97463.00
2023-05-22T14:47:59.940Z,97460.47
2023-05-22T14:50:27.121Z,97461.94
2023-05-22T14:52:54.248Z,97459.25
2023-05-22T14:55:22.158Z,97458.88
2023-05-22T14:57:49.342Z,97460.84
2023-05-22T15:00:16.826Z,97452.44
2023-05-22T15:02:44.009Z,97443.22
2023-05-22T15:05:11.432Z,97444.25
2023-05-22T15:10:09.440Z,97434.38
2023-05-22T15:12:37.205Z,97429.56
2023-05-22T15:15:04.579Z,97428.72
2023-05-22T15:17:31.674Z,97425.22
2023-05-22T15:19:58.739Z,97424.91
2023-05-22T15:22:26.077Z,97427.00
2023-05-22T15:25:07.861Z,97433.69
2023-05-22T15:27:36.131Z,97432.81
2023-05-22T15:30:04.555Z,97435.88
2023-05-22T15:32:36.393Z,97450.53
2023-05-22T15:35:03.624Z,97437.16
2023-05-22T15:37:34.298Z,97448.81
2023-05-22T15:40:02.115Z,97441.72
2023-05-22T15:42:29.367Z,97441.88
2023-05-22T15:44:58.292Z,97440.03
2023-05-22T15:47:25.657Z,97446.34
2023-05-22T15:49:52.813Z,97433.03
2023-05-22T15:52:21.235Z,97430.63
2023-05-22T15:54:48.367Z,97430.94
2023-05-22T15:57:15.734Z,97434.69
2023-05-22T15:59:42.845Z,97429.81
2023-05-22T16:02:09.856Z,97440.88
2023-05-22T16:04:37.072Z,97439.22
2023-05-22T16:07:04.224Z,97441.06
2023-05-22T16:09:32.763Z,97440.84
2023-05-22T16:12:00.066Z,97437.59
2023-05-22T16:14:27.210Z,97425.94
2023-05-22T16:16:54.198Z,97436.16
2023-05-22T16:19:21.426Z,97430.88
2023-05-22T16:21:48.655Z,97434.13
2023-05-22T16:24:15.799Z,97437.19
2023-05-22T16:26:42.862Z,97438.19
2023-05-22T16:29:09.935Z,97429.81
2023-05-22T16:31:37.069Z,97435.09
2023-05-22T16:34:05.436Z,97440.63
2023-05-22T16:36:33.010Z,97446.78
2023-05-22T16:39:00.057Z,97454.13
2023-05-22T16:41:27.733Z,97447.94
2023-05-22T16:43:54.753Z,97454.16
2023-05-22T16:46:22.184Z,97455.34
2023-05-22T16:48:50.537Z,97451.22
2023-05-22T16:51:17.582Z,97452.81
2023-05-22T16:53:44.801Z,97452.91
2023-05-22T16:56:11.915Z,97460.13
2023-05-22T16:58:39.065Z,97469.31
2023-05-22T17:01:09.227Z,97459.75
2023-05-22T17:03:36.625Z,97463.94
2023-05-22T17:06:04.871Z,97464.44
2023-05-22T17:08:32.295Z,97465.22
2023-05-22T17:10:59.377Z,97460.09
2023-05-22T17:13:26.469Z,97467.72
2023-05-22T17:15:53.473Z,97468.16
2023-05-22T17:18:21.051Z,97467.22
2023-05-22T17:20:49.450Z,97459.38
2023-05-22T17:23:16.737Z,97464.81
2023-05-22T17:25:46.815Z,97467.47
2023-05-22T17:28:14.760Z,97462.59
2023-05-22T17:30:44.206Z,97462.34
2023-05-22T17:33:12.357Z,97465.88
2023-05-22T17:35:39.420Z,97478.47
2023-05-22T17:38:08.593Z,97474.19
2023-05-22T17:40:44.990Z,97474.28
2023-05-22T17:43:14.034Z,97471.84
2023-05-22T17:45:41.846Z,97480.03
2023-05-22T17:48:09.150Z,97479.97
2023-05-22T17:50:36.245Z,97475.94
2023-05-22T17:53:03.457Z,97476.66
2023-05-22T17:55:30.504Z,97474.38
2023-05-22T17:57:57.757Z,97487.41
2023-05-22T18:00:24.820Z,97485.88
2023-05-22T18:02:51.984Z,97491.50
2023-05-22T18:05:19.096Z,97495.28
2023-05-22T18:07:46.099Z,97491.16
2023-05-22T18:10:13.272Z,97492.28
2023-05-22T18:12:40.469Z,97496.84
2023-05-22T18:15:10.767Z,97492.28
2023-05-22T18:17:38.733Z,97500.81
2023-05-22T18:20:09.552Z,97509.84
2023-05-22T18:22:38.422Z,97520.56
2023-05-22T18:25:06.962Z,97523.19
2023-05-22T18:27:34.542Z,97525.47
2023-05-22T18:30:02.033Z,97529.09
2023-05-22T18:32:29.113Z,97530.84
2023-05-22T18:34:58.648Z,97533.63
2023-05-22T18:37:26.135Z,97536.34
2023-05-22T18:39:53.327Z,97535.34
2023-05-22T18:42:20.546Z,97541.44
2023-05-22T18:44:49.170Z,97538.16
2023-05-22T18:47:17.010Z,97538.34
2023-05-22T18:49:44.125Z,97541.44
2023-05-22T18:52:11.235Z,97539.19
2023-05-22T18:54:38.311Z,97536.97
2023-05-22T18:57:05.640Z,97545.81
2023-05-22T18:59:32.709Z,97539.19
2023-05-22T19:01:59.769Z,97540.25
2023-05-22T19:04:26.930Z,97544.56
2023-05-22T19:06:54.061Z,97548.09
2023-05-22T19:09:21.312Z,97555.69
2023-05-22T19:11:48.366Z,97562.38
2023-05-22T19:14:15.608Z,97551.63
2023-05-22T19:16:43.888Z,97554.56
2023-05-22T19:19:11.773Z,97555.38
2023-05-22T19:21:39.068Z,97551.38
2023-05-22T19:24:07.050Z,97556.38
2023-05-22T19:26:34.104Z,97550.19
2023-05-22T19:29:01.192Z,97550.88
2023-05-22T19:31:31.426Z,97556.28
2023-05-22T19:33:58.543Z,97551.47
2023-05-22T19:36:25.841Z,97553.13
2023-05-22T19:38:53.675Z,97557.66
2023-05-22T19:41:21.697Z,97555.38
2023-05-22T19:43:48.751Z,97553.56
2023-05-22T19:46:15.859Z,97554.91
2023-05-22T19:48:42.953Z,97554.75
2023-05-22T19:51:10.059Z,97551.31
2023-05-22T19:53:37.487Z,97556.94
2023-05-22T19:56:04.567Z,97553.16
2023-05-22T19:58:31.552Z,97554.19
2023-05-22T20:00:58.617Z,97548.31
2023-05-22T20:03:26.586Z,97551.09
2023-05-22T20:05:53.890Z,97547.16
2023-05-22T20:08:25.661Z,97556.38
2023-05-22T20:10:52.966Z,97545.97
2023-05-22T20:13:20.026Z,97546.81
2023-05-22T20:15:51.510Z,97551.44
2023-05-22T20:18:18.715Z,97542.88
2023-05-22T20:20:45.815Z,97543.53
2023-05-22T20:23:13.115Z,97543.84
2023-05-22T20:25:40.411Z,97534.16
2023-05-22T20:28:07.594Z,97537.78
2023-05-22T20:30:34.611Z,97535.28
2023-05-22T20:33:01.748Z,97530.84
2023-05-22T20:35:30.665Z,97522.94
2023-05-22T20:38:03.193Z,97523.09
2023-05-22T20:40:32.526Z,97510.91
2023-05-22T20:43:02.662Z,97509.94
2023-05-22T20:45:30.887Z,97514.38
2023-05-22T20:47:58.029Z,97508.97
2023-05-22T20:50:25.108Z,97510.78
2023-05-22T20:52:52.988Z,97499.59
2023-05-22T20:55:20.059Z,97500.59
2023-05-22T20:57:47.149Z,97499.25
2023-05-22T21:00:14.857Z,97504.66
2023-05-22T21:02:42.037Z,97497.59
2023-05-22T21:05:09.469Z,97486.91
2023-05-22T21:07:36.543Z,97493.97
2023-05-22T21:10:03.881Z,97494.44
2023-05-22T21:12:30.955Z,97486.72
2023-05-22T21:14:58.091Z,97490.81
2023-05-22T21:17:26.039Z,97485.59
2023-05-22T21:19:53.258Z,97477.72
2023-05-22T21:22:20.627Z,97485.78
2023-05-22T21:24:48.040Z,97475.25
2023-05-22T21:27:15.174Z,97472.94
2023-05-22T21:29:42.171Z,97472.44
2023-05-22T21:32:09.215Z,97468.81
2023-05-22T21:34:36.243Z,97485.63
2023-05-22T21:37:03.255Z,97476.38
2023-05-22T21:39:30.320Z,97477.38
2023-05-22T21:41:57.354Z,97475.03
2023-05-22T21:44:24.365Z,97475.03
2023-05-22T21:46:51.625Z,97478.00
2023-05-22T21:49:18.659Z,97477.84
2023-05-22T21:51:45.706Z,97469.75
2023-05-22T21:54:12.772Z,97477.78
2023-05-22T21:56:39.809Z,97473.81
2023-05-22T21:59:06.862Z,97456.66
2023-05-22T22:01:33.957Z,97461.47
2023-05-22T22:04:01.219Z,97460.34
2023-05-22T22:06:28.360Z,97452.28
2023-05-22T22:08:58.004Z,97457.69
2023-05-22T22:11:24.983Z,97448.66
2023-05-22T22:13:52.271Z,97441.53
2023-05-22T22:16:19.460Z,97438.69
2023-05-22T22:18:49.147Z,97449.88
2023-05-22T22:21:16.422Z,97451.38
2023-05-22T22:23:43.423Z,97452.44
2023-05-22T22:26:12.255Z,97454.25
2023-05-22T22:28:39.326Z,97459.03
2023-05-22T22:31:06.495Z,97455.56
2023-05-22T22:33:33.516Z,97446.66
2023-05-22T22:36:00.493Z,97443.72
2023-05-22T22:38:27.561Z,97434.81
2023-05-22T22:40:54.807Z,97433.16
2023-05-22T22:43:21.875Z,97434.81
2023-05-22T22:45:48.902Z,97433.97
2023-05-22T22:48:16.773Z,97425.41
2023-05-22T22:50:44.229Z,97423.91
2023-05-22T22:53:11.234Z,97426.84
2023-05-22T22:55:38.574Z,97424.34
2023-05-22T22:58:06.891Z,97418.75
2023-05-22T23:00:33.994Z,97419.25
2023-05-22T23:03:01.272Z,97413.66
2023-05-22T23:05:28.516Z,97417.75
2023-05-22T23:07:55.576Z,97417.25
2023-05-22T23:10:22.642Z,97413.47
2023-05-22T23:12:50.364Z,97427.97
2023-05-22T23:15:17.598Z,97414.22
2023-05-22T23:17:44.757Z,97409.25
2023-05-22T23:20:11.929Z,97413.56
2023-05-22T23:22:38.972Z,97402.66
2023-05-22T23:25:06.608Z,97403.16
2023-05-22T23:27:33.749Z,97405.00
2023-05-22T23:30:00.797Z,97406.63
2023-05-22T23:32:28.701Z,97408.75
2023-05-22T23:34:55.949Z,97399.19
2023-05-22T23:37:22.984Z,97400.38
2023-05-22T23:39:50.028Z,97394.94
2023-05-22T23:42:17.337Z,97401.03
2023-05-22T23:44:44.395Z,97387.84
2023-05-22T23:47:11.553Z,97386.50
2023-05-22T23:49:38.647Z,97388.47
2023-05-22T23:52:05.698Z,97381.94
2023-05-22T23:54:32.685Z,97391.28
2023-05-22T23:56:59.719Z,97381.22
2023-05-22T23:59:26.737Z,97383.81
